Time;durP1;ratioP1;P1;durP2;ratioP2;P2;SDS_P1;SDS_P2;PMS_P1;PMS_P2;Temp;Humidity;BMP_temperature;BMP_pressure;BME280_temperature;BME280_humidity;BME280_pressure;Samples;Min_cycle;Max_cycle;Signal;HPM_P1;HPM_P2
2023/02/17 00:00:14;;;;;;;7.57;6.77;;;12.40;99.90;;;;;;6218311;23;20176;-84
2023/02/17 00:02:40;;;;;;;6.73;5.93;;;12.40;99.90;;;;;;6218392;23;20148;-83
2023/02/17 00:05:09;;;;;;;10.30;6.37;;;12.30;99.90;;;;;;6218964;23;20155;-84
2023/02/17 00:07:42;;;;;;;7.93;6.47;;;12.50;99.90;;;;;;6221024;23;20148;-84
2023/02/17 00:10:14;;;;;;;8.13;6.37;;;12.40;99.90;;;;;;6220231;23;20163;-85
2023/02/17 00:12:40;;;;;;;7.37;6.10;;;12.40;99.90;;;;;;6219289;23;20167;-85
2023/02/17 00:15:06;;;;;;;8.30;6.20;;;12.40;99.90;;;;;;6217910;23;20165;-83
2023/02/17 00:17:32;;;;;;;6.97;6.27;;;12.50;99.90;;;;;;6216522;23;20234;-82
2023/02/17 00:19:59;;;;;;;7.63;5.97;;;12.50;99.90;;;;;;6216717;23;20249;-82
2023/02/17 00:22:25;;;;;;;7.53;6.43;;;12.40;99.90;;;;;;6216526;23;20153;-82
2023/02/17 00:24:50;;;;;;;7.97;6.00;;;12.50;99.90;;;;;;6216484;23;20626;-82
2023/02/17 00:27:16;;;;;;;7.53;6.60;;;12.30;99.90;;;;;;6216287;23;20151;-82
2023/02/17 00:29:44;;;;;;;6.43;5.77;;;12.40;99.90;;;;;;6216692;23;20236;-83
2023/02/17 00:32:11;;;;;;;7.93;5.87;;;12.40;99.90;;;;;;6217481;23;20493;-83
2023/02/17 00:34:38;;;;;;;6.70;5.73;;;12.50;99.90;;;;;;6217036;23;20641;-83
2023/02/17 00:37:04;;;;;;;5.67;4.57;;;12.50;99.90;;;;;;6217967;23;20188;-84
2023/02/17 00:39:32;;;;;;;6.07;4.90;;;12.30;99.90;;;;;;6218886;23;20147;-84
2023/02/17 00:41:58;;;;;;;5.07;4.53;;;12.10;99.90;;;;;;6218306;23;20151;-84
2023/02/17 00:44:24;;;;;;;6.70;4.60;;;12.20;99.90;;;;;;6218066;23;20160;-84
2023/02/17 00:46:50;;;;;;;7.03;5.23;;;12.00;99.90;;;;;;6218103;23;20153;-83
2023/02/17 00:49:22;;;;;;;5.50;4.70;;;12.20;99.90;;;;;;6218999;23;20185;-85
2023/02/17 00:51:50;;;;;;;5.20;4.70;;;12.20;99.90;;;;;;6218030;23;20167;-83
2023/02/17 00:54:16;;;;;;;6.13;5.13;;;12.30;99.90;;;;;;6215228;23;20266;-79
2023/02/17 00:56:43;;;;;;;6.33;5.73;;;12.40;99.90;;;;;;6216111;23;20163;-80
2023/02/17 00:59:09;;;;;;;6.00;5.40;;;12.50;99.90;;;;;;6215115;23;20151;-79
2023/02/17 01:01:36;;;;;;;5.93;5.30;;;12.50;99.90;;;;;;6215624;23;20177;-79
2023/02/17 01:04:03;;;;;;;6.70;6.00;;;12.50;99.90;;;;;;6215150;23;20205;-77
2023/02/17 01:06:35;;;;;;;7.60;6.37;;;12.40;99.90;;;;;;6214333;23;20459;-77
2023/02/17 01:09:04;;;;;;;6.93;6.20;;;12.40;99.90;;;;;;6214753;23;20148;-80
2023/02/17 01:11:33;;;;;;;6.80;6.10;;;12.40;99.90;;;;;;6214615;23;20175;-79
2023/02/17 01:14:00;;;;;;;7.87;6.20;;;12.40;99.90;;;;;;6214968;23;20581;-79
2023/02/17 01:16:33;;;;;;;7.70;6.50;;;12.40;99.90;;;;;;6214646;23;20159;-78
2023/02/17 01:19:05;;;;;;;9.73;6.37;;;12.40;99.90;;;;;;6214824;23;20166;-80
2023/02/17 01:21:34;;;;;;;8.70;6.77;;;12.20;99.90;;;;;;6215165;23;20615;-79
2023/02/17 01:24:03;;;;;;;7.63;6.23;;;12.10;99.90;;;;;;6216075;23;20154;-81
2023/02/17 01:26:32;;;;;;;7.70;6.37;;;12.20;99.90;;;;;;6215196;23;20207;-79
2023/02/17 01:28:58;;;;;;;6.90;5.80;;;12.20;99.90;;;;;;6216224;23;20152;-78
2023/02/17 01:31:26;;;;;;;8.57;5.63;;;12.10;99.90;;;;;;6216713;23;20152;-79
2023/02/17 01:33:55;;;;;;;6.50;5.73;;;12.10;99.90;;;;;;6214766;23;20630;-78
2023/02/17 01:36:22;;;;;;;6.10;5.13;;;12.20;99.90;;;;;;6213967;23;20601;-78
2023/02/17 01:38:48;;;;;;;5.83;4.73;;;12.20;99.90;;;;;;6214529;23;20147;-78
2023/02/17 01:41:17;;;;;;;5.43;4.47;;;12.20;99.90;;;;;;6214038;23;20217;-77
2023/02/17 01:44:02;;;;;;;5.50;4.47;;;12.10;99.90;;;;;;6214156;23;20150;-78
2023/02/17 01:46:31;;;;;;;5.90;4.73;;;12.10;99.90;;;;;;6213976;23;20153;-79
2023/02/17 01:48:57;;;;;;;8.33;5.13;;;12.20;99.90;;;;;;6214126;23;20153;-78
2023/02/17 01:51:27;;;;;;;6.57;4.80;;;12.20;99.90;;;;;;6213435;23;20180;-77
2023/02/17 01:54:02;;;;;;;6.23;5.40;;;12.20;99.90;;;;;;6215383;23;20161;-79
2023/02/17 01:56:30;;;;;;;7.83;5.53;;;12.20;99.90;;;;;;6213854;23;20286;-78
2023/02/17 01:59:04;;;;;;;7.47;5.27;;;12.00;99.90;;;;;;6213955;23;20162;-78
2023/02/17 02:01:30;;;;;;;9.10;6.20;;;11.90;99.90;;;;;;6213766;23;20173;-78
2023/02/17 02:04:02;;;;;;;7.80;5.60;;;11.90;99.90;;;;;;6213721;23;20140;-79
2023/02/17 02:06:28;;;;;;;10.10;6.73;;;11.90;99.90;;;;;;6213390;23;20154;-79
2023/02/17 02:09:04;;;;;;;8.67;6.20;;;11.90;99.90;;;;;;6213827;23;20160;-78
2023/02/17 02:11:32;;;;;;;8.97;5.27;;;12.00;99.90;;;;;;6214360;23;20146;-78
2023/02/17 02:14:00;;;;;;;8.50;5.50;;;11.80;99.90;;;;;;6214550;23;20144;-79
2023/02/17 02:16:33;;;;;;;7.90;5.50;;;11.70;99.90;;;;;;6214137;23;20161;-79
2023/02/17 02:19:08;;;;;;;9.33;5.80;;;11.90;99.90;;;;;;6216832;23;20144;-77
2023/02/17 02:22:02;;;;;;;9.80;5.80;;;12.10;99.90;;;;;;6214623;23;20178;-79
2023/02/17 02:24:41;;;;;;;9.27;6.27;;;12.10;99.90;;;;;;6214186;23;20585;-79
2023/02/17 02:27:52;;;;;;;10.03;6.70;;;12.00;99.90;;;;;;6214190;23;20496;-78
2023/02/17 02:30:40;;;;;;;11.77;6.30;;;11.80;99.90;;;;;;6214280;23;20162;-79
2023/02/17 02:33:13;;;;;;;10.23;6.03;;;11.70;99.90;;;;;;6214188;23;20152;-78
2023/02/17 02:36:17;;;;;;;9.90;5.93;;;11.70;99.90;;;;;;6214442;23;20243;-78
2023/02/17 02:38:57;;;;;;;10.13;6.23;;;11.80;99.90;;;;;;6124048;23;20205;-78
2023/02/17 02:41:31;;;;;;;9.57;6.37;;;11.80;99.90;;;;;;6099364;23;20185;-77
2023/02/17 02:43:57;;;;;;;9.67;5.80;;;11.70;99.90;;;;;;6180766;23;20517;-78
2023/02/17 02:46:23;;;;;;;8.87;5.60;;;11.70;99.90;;;;;;6213950;23;20179;-77
2023/02/17 02:48:50;;;;;;;10.67;6.37;;;11.50;99.90;;;;;;6214716;23;20124;-79
2023/02/17 02:51:26;;;;;;;10.77;5.97;;;11.60;99.90;;;;;;6213432;23;20234;-79
2023/02/17 02:54:19;;;;;;;10.43;6.47;;;11.60;99.90;;;;;;6213042;23;20165;-80
2023/02/17 02:57:02;;;;;;;8.80;5.77;;;11.60;99.90;;;;;;6213571;23;20590;-78
2023/02/17 02:59:59;;;;;;;10.33;5.90;;;11.60;99.90;;;;;;6213450;23;20254;-79
2023/02/17 03:02:38;;;;;;;7.90;5.37;;;11.50;99.90;;;;;;6212911;23;20160;-80
2023/02/17 03:05:38;;;;;;;9.63;5.40;;;11.50;99.90;;;;;;6213428;23;20148;-80
2023/02/17 03:08:11;;;;;;;9.53;5.30;;;11.40;99.90;;;;;;6213358;23;20225;-79
2023/02/17 03:10:46;;;;;;;7.97;4.93;;;11.40;99.90;;;;;;6214971;23;20159;-79
2023/02/17 03:13:11;;;;;;;7.57;5.10;;;11.30;99.90;;;;;;6213236;23;20159;-78
2023/02/17 03:15:37;;;;;;;8.23;5.40;;;11.40;99.90;;;;;;6213409;23;20160;-80
2023/02/17 03:18:03;;;;;;;6.80;5.17;;;11.30;99.90;;;;;;6213334;23;20466;-78
2023/02/17 03:20:37;;;;;;;7.00;5.30;;;11.30;99.90;;;;;;6213572;23;20204;-80
2023/02/17 03:23:03;;;;;;;8.67;5.70;;;11.50;99.90;;;;;;6215483;23;20421;-79
2023/02/17 03:25:30;;;;;;;8.30;5.90;;;11.50;99.90;;;;;;6216007;23;20172;-78
2023/02/17 03:27:56;;;;;;;7.97;6.07;;;11.40;99.90;;;;;;6217937;23;20577;-78
2023/02/17 03:30:22;;;;;;;8.00;5.90;;;11.40;99.90;;;;;;6215503;23;20145;-79
2023/02/17 03:32:47;;;;;;;7.87;6.20;;;11.70;99.90;;;;;;6214821;23;20161;-78
2023/02/17 03:35:13;;;;;;;9.53;5.87;;;11.70;99.90;;;;;;6215253;23;20224;-78
2023/02/17 03:37:39;;;;;;;9.73;6.37;;;11.80;99.90;;;;;;6215098;23;20164;-78
2023/02/17 03:40:07;;;;;;;11.63;6.23;;;11.60;99.90;;;;;;6215002;23;20186;-78
2023/02/17 03:42:32;;;;;;;8.83;5.60;;;11.50;99.90;;;;;;6215134;23;20550;-79
2023/02/17 03:44:58;;;;;;;8.73;5.43;;;11.50;99.90;;;;;;6215228;23;20174;-78
2023/02/17 03:47:24;;;;;;;7.83;5.70;;;11.40;99.90;;;;;;6215634;23;20655;-77
2023/02/17 03:49:50;;;;;;;7.97;4.97;;;11.40;99.90;;;;;;6214937;23;20152;-78
2023/02/17 03:52:16;;;;;;;7.53;5.33;;;11.50;99.90;;;;;;6217162;23;20145;-79
2023/02/17 03:54:42;;;;;;;7.23;5.30;;;11.50;99.90;;;;;;6215521;23;20199;-78
2023/02/17 03:57:07;;;;;;;8.33;5.43;;;11.50;99.90;;;;;;6215928;23;20156;-79
2023/02/17 03:59:33;;;;;;;9.77;5.50;;;11.40;99.90;;;;;;6215616;23;20144;-78
2023/02/17 04:02:00;;;;;;;9.53;5.37;;;11.40;99.90;;;;;;6215646;23;20151;-79
2023/02/17 04:04:25;;;;;;;6.57;4.73;;;11.30;99.90;;;;;;6216443;23;20183;-79
2023/02/17 04:06:51;;;;;;;10.20;6.03;;;11.40;99.90;;;;;;6216722;23;20132;-80
2023/02/17 04:09:17;;;;;;;8.63;5.07;;;11.30;99.90;;;;;;6215569;23;20145;-79
2023/02/17 04:11:42;;;;;;;10.10;5.50;;;11.30;99.90;;;;;;6215011;23;20222;-79
2023/02/17 04:14:09;;;;;;;9.00;5.20;;;11.40;99.90;;;;;;6216508;23;20223;-78
2023/02/17 04:16:37;;;;;;;8.03;5.97;;;11.50;99.90;;;;;;6214723;23;20485;-78
2023/02/17 04:19:06;;;;;;;6.53;4.10;;;11.50;99.90;;;;;;6215531;23;20148;-81
2023/02/17 04:21:32;;;;;;;7.13;4.47;;;11.30;99.90;;;;;;6215795;23;20179;-78
2023/02/17 04:24:00;;;;;;;9.40;5.27;;;11.20;99.90;;;;;;6215664;23;20214;-79
2023/02/17 04:26:26;;;;;;;5.87;4.27;;;11.20;99.90;;;;;;6217569;23;20191;-74
2023/02/17 04:28:52;;;;;;;8.47;5.50;;;11.30;99.90;;;;;;6216249;23;20211;-76
2023/02/17 04:31:17;;;;;;;9.63;5.50;;;11.30;99.90;;;;;;6215955;23;20168;-78
2023/02/17 04:33:43;;;;;;;8.00;4.57;;;11.20;99.90;;;;;;6216291;23;20132;-78
2023/02/17 04:36:10;;;;;;;8.00;5.50;;;11.20;99.90;;;;;;6214570;23;20581;-78
2023/02/17 04:38:36;;;;;;;6.80;4.80;;;11.20;99.90;;;;;;6214733;23;20608;-78
2023/02/17 04:41:02;;;;;;;8.17;5.37;;;11.20;99.90;;;;;;6214536;23;20176;-77
2023/02/17 04:43:28;;;;;;;8.47;4.90;;;11.30;99.90;;;;;;6214631;23;20235;-77
2023/02/17 04:45:54;;;;;;;7.50;5.40;;;11.20;99.90;;;;;;6214213;23;20612;-76
2023/02/17 04:48:20;;;;;;;9.20;4.90;;;11.30;99.90;;;;;;6214664;23;20141;-77
2023/02/17 04:50:46;;;;;;;8.47;5.60;;;11.40;99.90;;;;;;6214553;23;20150;-78
2023/02/17 04:53:12;;;;;;;8.20;5.10;;;11.40;99.90;;;;;;6216016;23;20187;-77
2023/02/17 04:55:39;;;;;;;7.17;4.80;;;11.30;99.90;;;;;;6214355;23;20302;-76
2023/02/17 04:58:04;;;;;;;6.90;4.83;;;11.10;99.90;;;;;;6216161;23;20179;-78
2023/02/17 05:00:30;;;;;;;6.70;4.23;;;11.20;99.90;;;;;;6215625;23;20197;-77
2023/02/17 05:02:56;;;;;;;8.40;4.43;;;11.20;99.90;;;;;;6214571;23;20171;-77
2023/02/17 05:05:21;;;;;;;7.97;4.60;;;11.20;99.90;;;;;;6214497;23;20153;-78
2023/02/17 05:07:47;;;;;;;7.50;5.27;;;11.20;99.90;;;;;;6239773;23;20133;-77
2023/02/17 05:10:14;;;;;;;7.57;4.53;;;11.30;99.90;;;;;;6214097;23;20156;-77
2023/02/17 05:12:41;;;;;;;9.20;4.83;;;11.30;99.90;;;;;;6215933;23;20136;-76
2023/02/17 05:15:07;;;;;;;7.57;4.30;;;11.30;99.90;;;;;;6215679;23;20140;-78
2023/02/17 05:17:37;;;;;;;7.70;4.97;;;11.40;99.90;;;;;;6213947;23;20151;-77
2023/02/17 05:20:04;;;;;;;8.70;5.10;;;11.40;99.90;;;;;;6214455;23;20172;-79
2023/02/17 05:22:33;;;;;;;9.30;5.57;;;11.20;99.90;;;;;;6214922;23;20150;-76
2023/02/17 05:25:06;;;;;;;9.47;4.73;;;11.30;99.90;;;;;;6216515;23;20223;-76
2023/02/17 05:27:32;;;;;;;7.50;4.73;;;11.20;99.90;;;;;;6215991;23;20132;-77
2023/02/17 05:29:58;;;;;;;6.77;4.43;;;11.20;99.90;;;;;;6216123;23;20137;-76
2023/02/17 05:32:24;;;;;;;7.47;5.07;;;11.10;99.90;;;;;;6214552;23;20571;-77
2023/02/17 05:34:50;;;;;;;8.53;4.80;;;11.20;99.90;;;;;;6214310;23;20149;-78
2023/02/17 05:37:26;;;;;;;7.10;4.37;;;11.20;99.90;;;;;;6216327;23;20143;-76
2023/02/17 05:39:53;;;;;;;7.57;4.20;;;11.10;99.90;;;;;;6215937;23;20444;-76
2023/02/17 05:42:20;;;;;;;9.97;4.40;;;11.10;99.90;;;;;;6215764;23;20214;-76
2023/02/17 05:44:48;;;;;;;8.23;4.80;;;11.10;99.90;;;;;;6215817;23;20129;-76
2023/02/17 05:47:16;;;;;;;8.83;5.40;;;11.10;99.90;;;;;;6216126;23;20129;-78
2023/02/17 05:49:45;;;;;;;9.00;5.33;;;11.00;99.90;;;;;;6214563;23;20176;-77
2023/02/17 05:52:12;;;;;;;8.57;5.00;;;11.00;99.90;;;;;;6214531;23;20193;-78
2023/02/17 05:54:41;;;;;;;8.70;4.60;;;11.10;99.90;;;;;;6214193;23;20586;-77
2023/02/17 05:57:07;;;;;;;8.37;5.03;;;11.00;99.90;;;;;;6214204;23;20169;-77
2023/02/17 05:59:33;;;;;;;7.33;4.23;;;11.10;99.90;;;;;;6214320;23;20141;-76
2023/02/17 06:02:01;;;;;;;6.30;3.73;;;10.90;99.90;;;;;;6214201;23;20175;-77
2023/02/17 06:04:28;;;;;;;9.03;4.50;;;10.90;99.90;;;;;;6215989;23;20149;-77
2023/02/17 06:07:13;;;;;;;8.23;4.53;;;11.00;99.90;;;;;;6215990;23;20128;-76
2023/02/17 06:09:42;;;;;;;7.30;4.80;;;11.00;99.90;;;;;;6215989;23;20128;-76
2023/02/17 06:12:09;;;;;;;7.63;4.60;;;11.00;99.90;;;;;;6214476;23;20235;-78
2023/02/17 06:14:36;;;;;;;7.20;4.07;;;10.90;99.90;;;;;;6214835;23;20157;-78
2023/02/17 06:17:04;;;;;;;7.10;4.40;;;10.90;99.90;;;;;;6214778;23;20550;-80
2023/02/17 06:19:31;;;;;;;7.63;4.70;;;10.80;99.90;;;;;;6215976;23;20216;-79
2023/02/17 06:21:58;;;;;;;7.43;3.83;;;10.80;99.90;;;;;;6212702;23;20185;-78
2023/02/17 06:24:23;;;;;;;7.83;4.57;;;10.90;99.90;;;;;;6212621;23;20146;-78
2023/02/17 06:26:50;;;;;;;9.33;4.93;;;11.00;99.90;;;;;;6212465;23;20141;-79
2023/02/17 06:29:16;;;;;;;8.77;5.00;;;11.00;99.90;;;;;;6214102;23;20231;-79
2023/02/17 06:31:41;;;;;;;9.70;5.40;;;11.00;99.90;;;;;;6215604;23;20176;-79
2023/02/17 06:34:07;;;;;;;6.63;4.90;;;11.00;99.90;;;;;;6214042;23;20148;-79
2023/02/17 06:36:32;;;;;;;9.43;5.60;;;10.90;99.90;;;;;;6213797;23;20148;-79
2023/02/17 06:38:58;;;;;;;6.53;4.83;;;11.10;99.90;;;;;;6213557;23;20167;-79
2023/02/17 06:41:24;;;;;;;14.00;5.50;;;11.10;99.90;;;;;;6215444;23;20162;-79
2023/02/17 06:43:49;;;;;;;7.43;5.30;;;11.10;99.90;;;;;;6213123;23;20480;-78
2023/02/17 06:46:15;;;;;;;6.70;5.10;;;11.20;99.90;;;;;;6213939;23;20145;-78
2023/02/17 06:48:40;;;;;;;9.10;5.43;;;11.30;99.90;;;;;;6214473;23;20151;-80
2023/02/17 06:51:06;;;;;;;10.40;6.00;;;11.10;99.90;;;;;;6215810;23;20180;-79
2023/02/17 06:53:32;;;;;;;9.30;5.63;;;11.10;99.90;;;;;;6215739;23;20163;-78
2023/02/17 06:55:57;;;;;;;9.23;5.57;;;11.10;99.90;;;;;;6216220;23;20144;-80
2023/02/17 06:58:23;;;;;;;8.17;5.50;;;11.00;99.90;;;;;;6216749;23;20153;-78
2023/02/17 07:00:48;;;;;;;11.33;6.13;;;11.10;99.90;;;;;;6217506;23;20167;-79
2023/02/17 07:03:14;;;;;;;9.57;6.40;;;11.10;99.90;;;;;;6215893;23;20655;-78
2023/02/17 07:05:39;;;;;;;11.13;6.20;;;11.30;99.90;;;;;;6214921;23;20671;-76
2023/02/17 07:08:10;;;;;;;8.97;5.67;;;11.20;99.90;;;;;;6215377;23;20145;-78
2023/02/17 07:10:38;;;;;;;9.77;6.33;;;11.30;99.90;;;;;;6217004;23;20139;-78
2023/02/17 07:13:03;;;;;;;11.57;6.10;;;11.20;99.90;;;;;;6215368;23;20180;-78
2023/02/17 07:15:29;;;;;;;12.43;6.17;;;11.20;99.90;;;;;;6215426;23;20474;-79
2023/02/17 07:17:55;;;;;;;9.53;6.43;;;11.30;99.90;;;;;;6216909;23;20793;-78
2023/02/17 07:20:20;;;;;;;8.93;5.73;;;11.40;99.90;;;;;;6216403;23;20594;-78
2023/02/17 07:22:46;;;;;;;10.07;6.73;;;11.30;99.90;;;;;;6215193;23;20165;-78
2023/02/17 07:25:13;;;;;;;11.67;7.70;;;11.30;99.90;;;;;;6216543;23;20129;-78
2023/02/17 07:27:38;;;;;;;8.27;5.80;;;11.30;99.90;;;;;;6215283;23;20146;-78
2023/02/17 07:30:05;;;;;;;10.17;6.70;;;11.40;99.90;;;;;;6216801;23;20405;-77
2023/02/17 07:32:30;;;;;;;9.50;6.20;;;11.40;99.90;;;;;;6216774;23;20152;-78
2023/02/17 07:34:56;;;;;;;10.03;6.57;;;11.60;99.90;;;;;;6215280;23;20218;-78
2023/02/17 07:37:22;;;;;;;9.67;6.20;;;11.60;99.90;;;;;;6215350;23;20230;-78
2023/02/17 07:39:47;;;;;;;8.80;6.00;;;11.40;99.90;;;;;;6216174;23;20137;-78
2023/02/17 07:42:14;;;;;;;9.90;5.90;;;11.40;99.90;;;;;;6216887;23;20461;-78
2023/02/17 07:44:39;;;;;;;11.07;6.03;;;11.40;99.90;;;;;;6216760;23;20555;-77
2023/02/17 07:47:05;;;;;;;9.63;6.37;;;11.40;99.90;;;;;;6216735;23;20136;-77
2023/02/17 07:49:31;;;;;;;9.40;6.33;;;11.50;99.90;;;;;;6216746;23;20467;-78
2023/02/17 07:51:57;;;;;;;9.60;6.73;;;11.50;99.90;;;;;;6216527;23;20555;-78
2023/02/17 07:54:22;;;;;;;9.60;5.33;;;11.40;99.90;;;;;;6216439;23;20247;-78
2023/02/17 07:56:48;;;;;;;9.50;6.33;;;11.40;99.90;;;;;;6216929;23;20143;-78
2023/02/17 07:59:15;;;;;;;8.30;5.77;;;11.30;99.90;;;;;;6216801;23;20132;-79
2023/02/17 08:01:40;;;;;;;9.00;6.50;;;11.40;99.90;;;;;;6214626;23;20180;-78
2023/02/17 08:04:06;;;;;;;10.07;6.13;;;11.40;99.90;;;;;;6216336;23;20562;-78
2023/02/17 08:06:32;;;;;;;8.57;5.80;;;11.40;99.90;;;;;;6214945;23;20227;-78
2023/02/17 08:14:30;;;;;;;8.90;5.20;;;11.60;99.90;;;;;;6216429;23;20147;-77
2023/02/17 08:16:55;;;;;;;7.00;5.50;;;11.50;99.90;;;;;;6214648;23;20156;-77
2023/02/17 08:19:21;;;;;;;9.50;5.67;;;11.40;99.90;;;;;;6216153;23;20447;-77
2023/02/17 08:21:47;;;;;;;10.47;4.97;;;11.50;99.90;;;;;;6216031;23;20160;-78
2023/02/17 08:24:15;;;;;;;8.00;5.40;;;11.60;99.90;;;;;;6214294;23;20154;-77
2023/02/17 08:26:41;;;;;;;6.90;4.37;;;11.60;99.90;;;;;;6214754;23;20637;-77
2023/02/17 08:29:07;;;;;;;6.43;4.40;;;11.70;99.90;;;;;;6216022;23;20164;-78
2023/02/17 08:31:34;;;;;;;5.80;3.87;;;11.70;99.90;;;;;;6214773;23;20194;-77
2023/02/17 08:34:03;;;;;;;5.93;4.70;;;11.70;99.90;;;;;;6215906;23;20144;-77
2023/02/17 08:36:30;;;;;;;6.37;4.20;;;11.80;99.90;;;;;;6215846;23;20562;-78
2023/02/17 08:38:57;;;;;;;7.60;4.20;;;11.90;99.90;;;;;;6215949;23;20160;-79
2023/02/17 08:41:37;;;;;;;6.63;3.30;;;11.90;99.90;;;;;;6216323;23;20175;-77
2023/02/17 08:44:08;;;;;;;4.47;3.93;;;11.90;99.90;;;;;;6216282;23;20516;-77
2023/02/17 08:46:35;;;;;;;7.77;3.70;;;11.80;99.90;;;;;;6216063;23;20126;-78
2023/02/17 08:49:01;;;;;;;5.73;3.90;;;11.80;99.90;;;;;;6216420;23;20500;-78
2023/02/17 08:51:26;;;;;;;4.67;3.50;;;12.00;99.90;;;;;;6215872;23;20137;-77
2023/02/17 08:53:55;;;;;;;5.83;3.47;;;12.00;99.90;;;;;;6216089;23;20167;-78
2023/02/17 08:56:22;;;;;;;6.03;3.83;;;12.00;99.90;;;;;;6216085;23;20132;-77
2023/02/17 08:58:49;;;;;;;6.83;4.40;;;12.10;99.90;;;;;;6216214;23;20586;-77
2023/02/17 09:01:17;;;;;;;4.03;2.67;;;12.20;99.90;;;;;;6216048;23;20274;-78
2023/02/17 09:03:43;;;;;;;4.03;2.87;;;12.20;99.90;;;;;;6216666;23;20132;-78
2023/02/17 09:06:09;;;;;;;4.83;3.27;;;12.30;99.90;;;;;;6214426;23;20176;-79
2023/02/17 09:08:35;;;;;;;3.80;2.80;;;12.40;99.90;;;;;;6215011;23;20527;-78
2023/02/17 09:11:01;;;;;;;4.73;2.40;;;12.40;99.90;;;;;;6215934;23;20145;-78
2023/02/17 09:13:27;;;;;;;4.40;2.73;;;12.50;99.90;;;;;;6214490;23;20482;-77
2023/02/17 09:15:53;;;;;;;2.77;2.40;;;12.50;99.90;;;;;;6216259;23;20184;-78
2023/02/17 09:18:21;;;;;;;3.30;2.50;;;12.60;99.90;;;;;;6214107;23;20153;-78
2023/02/17 09:20:47;;;;;;;4.63;2.30;;;12.60;99.90;;;;;;6215431;23;20165;-78
2023/02/17 09:23:13;;;;;;;4.07;2.67;;;12.60;99.90;;;;;;6216529;23;20567;-78
2023/02/17 09:25:39;;;;;;;2.93;1.93;;;12.80;99.90;;;;;;6215226;23;20566;-77
2023/02/17 09:28:05;;;;;;;4.03;2.03;;;12.90;99.90;;;;;;6214500;23;20151;-78
2023/02/17 09:30:30;;;;;;;3.60;1.80;;;13.00;99.90;;;;;;6215948;23;20220;-78
2023/02/17 09:32:58;;;;;;;3.47;2.10;;;13.00;99.90;;;;;;6214477;23;20615;-78
2023/02/17 09:35:25;;;;;;;4.37;2.00;;;13.10;99.90;;;;;;6215378;23;20216;-78
2023/02/17 09:37:50;;;;;;;2.10;1.90;;;13.00;99.90;;;;;;6215727;23;20182;-77
2023/02/17 09:40:31;;;;;;;2.57;1.83;;;12.90;99.90;;;;;;6215802;23;20170;-78
2023/02/17 09:42:56;;;;;;;3.70;2.03;;;12.90;99.90;;;;;;6216447;23;20556;-77
2023/02/17 09:45:31;;;;;;;3.47;2.23;;;13.00;99.90;;;;;;6216306;23;20139;-78
2023/02/17 09:48:00;;;;;;;3.43;2.37;;;13.20;99.90;;;;;;6214604;23;20154;-77
2023/02/17 09:50:57;;;;;;;5.40;2.30;;;13.30;99.90;;;;;;6215884;23;20526;-78
2023/02/17 09:53:53;;;;;;;3.60;2.30;;;13.40;99.90;;;;;;6216904;23;20170;-78
2023/02/17 09:56:32;;;;;;;3.50;2.20;;;13.50;99.90;;;;;;6214498;23;20233;-78
2023/02/17 09:59:07;;;;;;;2.90;1.83;;;13.60;99.90;;;;;;6216371;23;20135;-78
2023/02/17 10:01:34;;;;;;;3.50;2.30;;;13.70;99.90;;;;;;6214525;23;20192;-78
2023/02/17 10:04:13;;;;;;;2.97;2.20;;;13.60;99.90;;;;;;6216055;23;20132;-78
2023/02/17 10:06:43;;;;;;;2.90;1.50;;;13.60;99.90;;;;;;6214580;23;20147;-78
2023/02/17 10:09:33;;;;;;;2.73;1.43;;;13.70;99.90;;;;;;6215943;23;20136;-78
2023/02/17 10:12:05;;;;;;;2.27;1.67;;;13.90;99.90;;;;;;6216371;23;20139;-78
2023/02/17 10:14:42;;;;;;;1.90;1.60;;;13.90;99.90;;;;;;6216633;23;20135;-78
2023/02/17 10:17:25;;;;;;;2.30;2.10;;;13.90;99.90;;;;;;6216309;23;20481;-78
2023/02/17 10:19:57;;;;;;;3.80;1.77;;;13.60;99.90;;;;;;6216937;23;20219;-78
2023/02/17 10:22:23;;;;;;;7.00;1.80;;;13.60;99.90;;;;;;6215240;23;20158;-78
2023/02/17 10:24:49;;;;;;;2.73;2.17;;;13.80;99.90;;;;;;6214846;23;20158;-78
2023/02/17 10:27:27;;;;;;;3.07;1.67;;;13.90;99.90;;;;;;6239275;23;20508;-78
2023/02/17 10:30:11;;;;;;;3.70;1.80;;;14.00;99.90;;;;;;6215881;23;20128;-78
2023/02/17 10:32:57;;;;;;;4.63;2.10;;;14.00;99.90;;;;;;6213018;23;20225;-79
2023/02/17 10:35:35;;;;;;;2.30;1.70;;;14.00;99.90;;;;;;6169699;23;20158;-78
2023/02/17 10:38:14;;;;;;;3.10;1.70;;;14.10;99.90;;;;;;6214285;23;20234;-78
2023/02/17 10:40:40;;;;;;;3.20;1.60;;;14.30;99.90;;;;;;6215717;23;20242;-79
2023/02/17 10:43:09;;;;;;;2.27;1.70;;;14.30;99.90;;;;;;6215956;23;20524;-78
2023/02/17 10:45:44;;;;;;;4.50;1.80;;;14.40;99.90;;;;;;6214620;23;20219;-78
2023/02/17 10:48:23;;;;;;;3.70;1.80;;;14.40;99.90;;;;;;6214039;23;20154;-78
2023/02/17 10:50:50;;;;;;;4.50;1.40;;;14.50;99.90;;;;;;6216473;23;20570;-78
2023/02/17 10:53:23;;;;;;;3.83;1.57;;;14.50;99.90;;;;;;6213931;23;20178;-77
2023/02/17 10:55:55;;;;;;;1.57;1.27;;;14.50;99.90;;;;;;6214535;23;20206;-79
2023/02/17 10:58:30;;;;;;;2.60;1.07;;;14.60;99.90;;;;;;6215842;23;20132;-77
2023/02/17 11:00:56;;;;;;;2.57;1.50;;;14.50;99.90;;;;;;6215174;23;20266;-78
2023/02/17 11:03:28;;;;;;;2.40;1.53;;;14.70;99.90;;;;;;6215774;23;20132;-77
2023/02/17 11:05:57;;;;;;;3.63;1.60;;;14.60;99.90;;;;;;6216133;23;20158;-78
2023/02/17 11:08:36;;;;;;;1.17;1.07;;;14.50;99.90;;;;;;6215347;23;20136;-78
2023/02/17 11:11:19;;;;;;;2.67;1.77;;;14.50;99.90;;;;;;6215600;23;20162;-80
2023/02/17 11:14:03;;;;;;;3.57;2.07;;;14.60;99.90;;;;;;6213635;23;20238;-77
2023/02/17 11:16:36;;;;;;;2.73;1.87;;;14.70;99.90;;;;;;6214892;23;20136;-78
2023/02/17 11:19:04;;;;;;;3.33;2.00;;;14.70;99.90;;;;;;6215568;23;20215;-79
2023/02/17 11:21:32;;;;;;;3.30;1.40;;;14.90;99.90;;;;;;6212773;23;20172;-78
2023/02/17 11:24:05;;;;;;;3.37;1.40;;;15.00;99.90;;;;;;6212080;23;20147;-78
2023/02/17 11:26:36;;;;;;;4.80;1.53;;;15.10;99.90;;;;;;6215425;23;20159;-78
2023/02/17 11:29:25;;;;;;;1.47;1.33;;;15.10;99.90;;;;;;6213836;23;20155;-79
2023/02/17 11:32:07;;;;;;;2.37;1.13;;;15.00;99.90;;;;;;6215444;23;20136;-78
2023/02/17 11:34:38;;;;;;;3.63;1.17;;;15.10;99.90;;;;;;6213564;23;20155;-79
2023/02/17 11:37:12;;;;;;;3.00;1.20;;;15.10;99.90;;;;;;6215201;23;20175;-78
2023/02/17 11:39:52;;;;;;;3.07;0.90;;;15.10;99.90;;;;;;6215238;23;20194;-78
2023/02/17 11:42:30;;;;;;;3.50;0.70;;;15.00;99.90;;;;;;6214994;23;20511;-79
2023/02/17 11:45:24;;;;;;;0.90;0.50;;;15.00;99.90;;;;;;6216538;23;20139;-77
2023/02/17 11:47:55;;;;;;;3.33;0.67;;;15.20;99.90;;;;;;6216946;23;20275;-77
2023/02/17 11:50:27;;;;;;;2.97;0.77;;;15.20;99.90;;;;;;6214847;23;20467;-77
2023/02/17 11:53:22;;;;;;;1.33;0.70;;;15.20;99.90;;;;;;6214458;23;20178;-77
2023/02/17 11:55:54;;;;;;;0.63;0.40;;;15.20;99.90;;;;;;6216634;23;20155;-77
2023/02/17 11:58:39;;;;;;;2.70;0.73;;;15.40;99.90;;;;;;6216289;23;20449;-77
2023/02/17 12:01:32;;;;;;;2.90;0.70;;;15.40;99.90;;;;;;6215896;23;20174;-78
2023/02/17 12:04:20;;;;;;;2.33;0.50;;;15.40;99.90;;;;;;6216440;23;20170;-77
2023/02/17 12:07:17;;;;;;;1.63;0.73;;;15.00;99.90;;;;;;6216761;23;20480;-78
2023/02/17 12:10:09;;;;;;;0.93;0.50;;;14.80;99.90;;;;;;6216565;23;20159;-79
2023/02/17 12:12:49;;;;;;;1.67;0.57;;;14.80;99.90;;;;;;6216802;23;20139;-76
2023/02/17 12:15:47;;;;;;;0.50;0.40;;;15.00;99.90;;;;;;6216697;23;20649;-79
2023/02/17 12:18:47;;;;;;;2.63;0.77;;;15.30;99.90;;;;;;6216237;23;20148;-80
2023/02/17 12:21:38;;;;;;;3.07;0.50;;;15.30;99.90;;;;;;6216041;23;20171;-79
2023/02/17 12:24:25;;;;;;;3.40;0.70;;;15.00;99.90;;;;;;6215302;23;20227;-80
2023/02/17 12:27:00;;;;;;;6.07;0.77;;;14.80;99.90;;;;;;6216833;23;20135;-78
2023/02/17 12:30:01;;;;;;;4.83;0.70;;;14.80;99.90;;;;;;6214715;23;20143;-80
2023/02/17 12:32:55;;;;;;;1.07;0.43;;;14.80;99.90;;;;;;6215016;23;20590;-80
2023/02/17 12:35:51;;;;;;;2.70;0.63;;;14.50;99.90;;;;;;6213985;23;20155;-78
2023/02/17 12:38:24;;;;;;;2.70;0.30;;;14.50;99.90;;;;;;6215475;23;20159;-81
2023/02/17 12:40:57;;;;;;;2.87;0.70;;;14.10;99.90;;;;;;6215111;23;20177;-80
2023/02/17 12:43:39;;;;;;;2.57;0.60;;;14.10;99.90;;;;;;6210163;23;20229;-79
2023/02/17 12:46:10;;;;;;;3.50;0.50;;;14.00;99.90;;;;;;6213119;23;20462;-80
2023/02/17 12:48:39;;;;;;;1.33;0.70;;;14.00;99.90;;;;;;6210626;23;20221;-79
2023/02/17 12:51:19;;;;;;;1.93;0.50;;;14.00;99.90;;;;;;6213108;23;20159;-80
2023/02/17 12:54:15;;;;;;;2.43;0.57;;;14.00;99.90;;;;;;6214140;23;20250;-80
2023/02/17 12:56:59;;;;;;;3.23;0.80;;;14.20;99.90;;;;;;6212906;23;20157;-80
2023/02/17 12:59:30;;;;;;;0.93;0.40;;;14.30;99.90;;;;;;6213455;23;20159;-81
2023/02/17 13:01:59;;;;;;;2.83;0.53;;;14.10;99.90;;;;;;6212874;23;20174;-80
2023/02/17 13:04:27;;;;;;;3.33;1.23;;;13.80;99.90;;;;;;6215290;23;20150;-81
2023/02/17 13:07:09;;;;;;;1.47;0.60;;;13.70;99.90;;;;;;6213012;23;20185;-80
2023/02/17 13:09:43;;;;;;;2.47;0.47;;;13.70;99.90;;;;;;6214813;23;20529;-81